createdAt,value
2019-06-08T00:00:20.666Z,96.66
2019-06-08T00:01:20.462Z,96.61
2019-06-08T00:02:20.660Z,96.56
2019-06-08T00:03:20.345Z,96.94
2019-06-08T00:04:19.174Z,97.14
2019-06-08T00:05:20.906Z,98.38
2019-06-08T00:06:20.679Z,98.38
2019-06-08T00:07:19.242Z,98.67
2019-06-08T00:08:19.425Z,98.57
2019-06-08T00:09:20.776Z,98.19
2019-06-08T00:10:22.584Z,98.47
2019-06-08T00:11:19.472Z,98.28
2019-06-08T00:12:18.985Z,98.71
2019-06-08T00:13:19.756Z,99.43
2019-06-08T00:14:19.166Z,99.67
2019-06-08T00:15:18.797Z,99.48
2019-06-08T00:16:19.292Z,99.99
2019-06-08T00:17:38.678Z,99.99
2019-06-08T00:18:19.202Z,99.99
2019-06-08T00:19:19.119Z,99.99
2019-06-08T00:23:48.501Z,99.58
2019-06-08T00:24:48.491Z,99.29
2019-06-08T00:25:48.466Z,99.19
2019-06-08T00:26:48.448Z,99.19
2019-06-08T00:27:58.729Z,99.29
2019-06-08T00:28:48.450Z,99.48
2019-06-08T00:29:48.484Z,98.71
2019-06-08T00:30:48.471Z,97.66
2019-06-08T00:31:48.498Z,97.38
2019-06-08T00:32:48.487Z,97.56
2019-06-08T00:33:48.516Z,96.61
2019-06-08T00:34:48.458Z,97.09
2019-06-08T00:35:48.488Z,96.8
2019-06-08T00:36:48.474Z,97.56
2019-06-08T00:37:48.471Z,97.75
2019-06-08T00:38:48.495Z,97.85
2019-06-08T00:39:48.482Z,98.33
2019-06-08T00:40:48.488Z,98.91
2019-06-08T00:41:48.484Z,98.43
2019-06-08T00:42:48.500Z,98.24
2019-06-08T00:43:48.509Z,98.14
2019-06-08T00:44:48.495Z,98.14
2019-06-08T00:45:48.500Z,98.24
2019-06-08T00:46:48.610Z,97.56
2019-06-08T00:47:50.809Z,98.24
2019-06-08T00:48:48.504Z,98.05
2019-06-08T00:49:48.506Z,98.38
2019-06-08T00:50:48.543Z,98.43
2019-06-08T00:51:48.571Z,98.71
2019-06-08T00:52:48.502Z,98.52
2019-06-08T00:53:48.495Z,98.95
2019-06-08T00:54:48.481Z,98.62
2019-06-08T00:55:48.493Z,99.38
2019-06-08T00:56:48.516Z,99.77
2019-06-08T00:57:58.804Z,99.48
2019-06-08T00:58:48.555Z,99.58
2019-06-08T00:59:48.513Z,99.67
2019-06-08T01:00:51.590Z,98.62
2019-06-08T01:01:48.526Z,98.33
2019-06-08T01:02:48.517Z,98.43
2019-06-08T01:03:48.500Z,98.14
2019-06-08T01:09:04.546Z,99.1
2019-06-08T01:09:15.519Z,99.43
2019-06-08T01:10:15.570Z,99.96
2019-06-08T01:11:15.540Z,99.33
2019-06-08T01:12:15.524Z,99.99
2019-06-08T01:13:15.514Z,99.99
2019-06-08T01:14:15.536Z,99.99
2019-06-08T01:15:15.690Z,99.99
2019-06-08T01:16:15.526Z,99.99
2019-06-08T01:17:15.493Z,99.99
2019-06-08T01:18:15.564Z,99.99
2019-06-08T01:19:15.512Z,99.99
2019-06-08T01:20:15.511Z,99.99
2019-06-08T01:21:15.523Z,99.99
2019-06-08T01:22:15.553Z,99.99
2019-06-08T01:23:15.655Z,99.99
2019-06-08T01:24:15.593Z,99.99
2019-06-08T01:25:15.525Z,99.99
2019-06-08T01:26:15.510Z,99.99
2019-06-08T01:27:15.567Z,99.99
2019-06-08T01:28:15.774Z,99.91
2019-06-08T01:29:15.575Z,99.99
2019-06-08T01:30:15.587Z,99.99
2019-06-08T01:31:15.567Z,99.99
2019-06-08T01:32:15.555Z,99.52
2019-06-08T01:33:15.553Z,99.62
2019-06-08T01:34:15.535Z,99.43
2019-06-08T01:35:15.569Z,99.43
2019-06-08T01:36:15.557Z,99.24
2019-06-08T01:37:15.554Z,99.62
2019-06-08T01:38:15.532Z,99.15
2019-06-08T01:39:15.529Z,99.05
2019-06-08T01:40:15.546Z,99.05
2019-06-08T01:41:15.549Z,98.86
2019-06-08T01:42:15.564Z,99.33
2019-06-08T01:43:16.064Z,99.24
2019-06-08T01:44:15.622Z,99.52
2019-06-08T01:45:15.653Z,99.19
2019-06-08T01:46:15.567Z,99.52
2019-06-08T01:47:15.574Z,98.66
2019-06-08T01:48:24.032Z,98.66
2019-06-08T01:49:15.587Z,98.43
2019-06-08T01:50:15.576Z,98.14
2019-06-08T01:51:15.625Z,97.75
2019-06-08T01:52:15.563Z,96.42
2019-06-08T01:53:15.626Z,96.89
2019-06-08T01:54:15.584Z,96.37
2019-06-08T01:55:15.569Z,96.03
2019-06-08T01:56:15.593Z,95.75
2019-06-08T01:57:15.575Z,95.51
2019-06-08T01:58:15.599Z,96.03
2019-06-08T01:59:15.617Z,96.08
2019-06-08T02:00:39.067Z,96.37
2019-06-08T02:01:15.860Z,96.47
2019-06-08T02:02:15.636Z,96.32
2019-06-08T02:03:15.601Z,96.47
2019-06-08T02:09:55.035Z,96.51
2019-06-08T02:10:54.975Z,96.42
2019-06-08T02:11:54.998Z,95.65
2019-06-08T02:12:55.024Z,96.03
2019-06-08T02:13:55.016Z,95.65
2019-06-08T02:14:55.034Z,95.94
2019-06-08T02:15:55.013Z,95.65
2019-06-08T02:16:55.011Z,95.46
2019-06-08T02:17:55.138Z,95.46
2019-06-08T02:18:55.021Z,95.94
2019-06-08T02:19:55.027Z,95.56
2019-06-08T02:20:55.057Z,95.94
2019-06-08T02:21:55.017Z,96.13
2019-06-08T02:22:55.032Z,96.32
2019-06-08T02:23:55.036Z,96.89
2019-06-08T02:24:55.034Z,96.32
2019-06-08T02:25:55.020Z,96.61
2019-06-08T02:26:55.034Z,96.42
2019-06-08T02:28:55.111Z,95.75
2019-06-08T02:29:55.008Z,95.94
2019-06-08T02:30:55.055Z,96.03
2019-06-08T02:31:55.042Z,95.89
2019-06-08T02:32:55.070Z,96.13
2019-06-08T02:33:55.024Z,96.22
2019-06-08T02:34:55.048Z,95.94
2019-06-08T02:35:55.309Z,95.36
2019-06-08T02:36:55.009Z,95.46
2019-06-08T02:37:55.017Z,96.22
2019-06-08T02:38:55.051Z,96.22
2019-06-08T02:39:55.037Z,95.75
2019-06-08T02:40:55.039Z,95.65
2019-06-08T02:41:55.052Z,95.27
2019-06-08T02:42:55.051Z,95.36
2019-06-08T02:43:55.058Z,95.65
2019-06-08T02:44:55.022Z,95.79
2019-06-08T02:45:55.055Z,95.46
2019-06-08T02:46:55.063Z,95.36
2019-06-08T02:47:55.086Z,95.75
2019-06-08T02:49:06.212Z,96.22
2019-06-08T02:49:55.054Z,95.84
2019-06-08T02:50:55.084Z,95.75
2019-06-08T02:51:55.061Z,96.61
2019-06-08T02:52:55.076Z,96.37
2019-06-08T02:53:55.046Z,96.03
2019-06-08T02:54:55.087Z,95.75
2019-06-08T02:55:55.076Z,95.75
2019-06-08T02:56:55.072Z,95.75
2019-06-08T02:58:55.075Z,95.36
2019-06-08T02:59:55.084Z,95.84
2019-06-08T03:00:55.111Z,95.46
2019-06-08T03:01:55.086Z,95.46
2019-06-08T03:02:55.101Z,95.27
2019-06-08T03:03:55.068Z,95.56
2019-06-08T03:04:55.126Z,95.56
2019-06-08T03:05:55.079Z,95.36
2019-06-08T03:06:55.070Z,95.36
2019-06-08T03:07:55.551Z,95.27
2019-06-08T03:08:55.106Z,95.07
2019-06-08T03:09:55.125Z,95.36
2019-06-08T03:10:55.093Z,95.17
2019-06-08T03:11:55.118Z,95.17
2019-06-08T03:12:55.105Z,95.27
2019-06-08T03:13:55.442Z,95.46
2019-06-08T03:14:55.116Z,95.36
2019-06-08T03:15:55.107Z,95.46
2019-06-08T03:16:55.134Z,95.94
2019-06-08T03:17:55.079Z,97.47
2019-06-08T03:18:55.128Z,97.66
2019-06-08T03:19:55.132Z,97.56
2019-06-08T03:20:55.102Z,97.66
2019-06-08T03:21:55.123Z,98.33
2019-06-08T03:22:55.135Z,98.24
2019-06-08T03:23:55.141Z,98.52
2019-06-08T03:24:55.147Z,98.43
2019-06-08T03:25:56.218Z,98.24
2019-06-08T03:26:55.158Z,99.1
2019-06-08T03:27:55.175Z,99.67
2019-06-08T03:28:55.136Z,99.99
2019-06-08T03:29:55.185Z,99.99
2019-06-08T03:30:57.381Z,99.1
2019-06-08T03:31:58.806Z,99.1
2019-06-08T03:32:59.312Z,99
2019-06-08T03:33:58.375Z,98.91
2019-06-08T03:34:59.174Z,99.1
2019-06-08T03:36:00.712Z,98.52
2019-06-08T03:36:59.511Z,98.43
2019-06-08T03:37:55.490Z,99.58
2019-06-08T03:38:55.137Z,99.67
2019-06-08T03:39:55.147Z,98.43
2019-06-08T03:40:55.321Z,98.62
2019-06-08T03:41:55.166Z,98.24
2019-06-08T03:42:57.949Z,98.81
2019-06-08T03:43:55.526Z,98.71
2019-06-08T03:44:55.158Z,98.14
2019-06-08T03:45:55.253Z,98.71
2019-06-08T03:46:55.197Z,98.81
2019-06-08T03:47:55.176Z,98.52
2019-06-08T03:48:55.168Z,98.24
2019-06-08T03:50:00.164Z,98.14
2019-06-08T03:50:55.191Z,98.33
2019-06-08T03:51:55.168Z,98.24
2019-06-08T03:52:55.171Z,99.48
2019-06-08T03:53:55.169Z,99.1
2019-06-08T03:54:55.205Z,99.48
2019-06-08T03:55:55.157Z,99.19
2019-06-08T03:56:55.182Z,99.99
2019-06-08T03:57:55.168Z,99.38
2019-06-08T03:58:55.180Z,99.38
2019-06-08T03:59:55.172Z,99.48
2019-06-08T04:00:55.195Z,99.99
2019-06-08T04:01:55.219Z,99.99
2019-06-08T04:02:55.161Z,99.99
2019-06-08T04:03:58.922Z,99.99
2019-06-08T04:04:55.214Z,99.99
2019-06-08T04:05:55.198Z,99.99
2019-06-08T04:06:55.190Z,99.99
2019-06-08T04:07:55.172Z,99.19
2019-06-08T04:08:55.177Z,99.99
2019-06-08T04:09:55.184Z,99.87
2019-06-08T04:10:55.191Z,99.38
2019-06-08T04:11:55.185Z,99.77
2019-06-08T04:12:55.195Z,99.99
2019-06-08T04:13:55.200Z,99.48
2019-06-08T04:14:55.174Z,99.99
2019-06-08T04:15:55.236Z,99.99
2019-06-08T04:16:55.274Z,99.77
2019-06-08T04:17:55.489Z,99.38
2019-06-08T04:18:55.191Z,99
2019-06-08T04:20:12.729Z,98.24
2019-06-08T04:20:55.222Z,97.66
2019-06-08T04:21:55.245Z,98.33
2019-06-08T04:22:55.190Z,99.67
2019-06-08T04:23:55.200Z,98.62
2019-06-08T04:24:55.226Z,98.43
2019-06-08T04:25:55.207Z,98.33
2019-06-08T04:26:55.238Z,98.43
2019-06-08T04:27:55.219Z,98.05
2019-06-08T04:28:55.661Z,96.89
2019-06-08T04:29:55.225Z,97.47
2019-06-08T04:30:55.228Z,98.33
2019-06-08T04:31:55.239Z,97.28
2019-06-08T04:32:55.242Z,96.89
2019-06-08T04:33:55.257Z,96.89
2019-06-08T04:34:55.215Z,96.89
2019-06-08T04:35:55.221Z,96.89
2019-06-08T04:36:55.245Z,97.09
2019-06-08T04:37:55.218Z,96.7
2019-06-08T04:38:55.261Z,96.89
2019-06-08T04:39:55.228Z,97.47
2019-06-08T04:40:55.286Z,97.38
2019-06-08T04:41:55.280Z,97.38
2019-06-08T04:42:55.268Z,96.99
2019-06-08T04:43:55.231Z,97.66
2019-06-08T04:44:55.263Z,98.05
2019-06-08T04:45:55.273Z,98.62
2019-06-08T04:46:55.274Z,98.14
2019-06-08T04:47:55.257Z,98.71
2019-06-08T04:48:55.243Z,99
2019-06-08T04:49:55.257Z,98.62
2019-06-08T04:50:55.253Z,98.52
2019-06-08T04:51:55.254Z,98.05
2019-06-08T04:52:55.249Z,98.62
2019-06-08T04:53:55.256Z,97.66
2019-06-08T04:54:55.286Z,97.95
2019-06-08T04:55:55.272Z,97.66
2019-06-08T04:56:55.275Z,98.33
2019-06-08T04:57:55.341Z,98.43
2019-06-08T04:58:55.310Z,98.62
2019-06-08T04:59:55.312Z,97.95
2019-06-08T05:00:55.290Z,98.43
2019-06-08T05:01:55.263Z,98.24
2019-06-08T05:02:55.303Z,98.43
2019-06-08T05:03:55.274Z,98.24
2019-06-08T05:04:55.307Z,98.62
2019-06-08T05:05:55.267Z,98.71
2019-06-08T05:06:55.305Z,99.19
2019-06-08T05:07:55.320Z,98.71
2019-06-08T05:08:55.323Z,98.91
2019-06-08T05:09:55.288Z,99.1
2019-06-08T05:10:55.311Z,99.29
2019-06-08T05:11:55.300Z,99.58
2019-06-08T05:12:55.309Z,99.29
2019-06-08T05:13:55.294Z,99.48
2019-06-08T05:14:55.383Z,99.99
2019-06-08T05:15:55.315Z,99.48
2019-06-08T05:16:55.316Z,99.19
2019-06-08T05:17:55.278Z,99.48
2019-06-08T05:18:55.354Z,98.43
2019-06-08T05:19:55.313Z,98.91
2019-06-08T05:20:55.343Z,99.48
2019-06-08T05:21:55.307Z,99.1
2019-06-08T05:22:55.339Z,99.48
2019-06-08T05:24:01.421Z,99.24
2019-06-08T05:24:55.307Z,99
2019-06-08T05:25:55.317Z,99.48
2019-06-08T05:26:55.321Z,99.19
2019-06-08T05:27:55.305Z,99.15
2019-06-08T05:28:55.331Z,99.38
2019-06-08T05:29:55.321Z,99.38
2019-06-08T05:30:55.346Z,98.91
2019-06-08T05:31:55.608Z,99.96
2019-06-08T05:32:55.341Z,99.99
2019-06-08T05:33:55.325Z,99.99
2019-06-08T05:34:55.353Z,99.99
2019-06-08T05:35:55.376Z,99.99
2019-06-08T05:36:55.345Z,99.99
2019-06-08T05:37:55.645Z,99.99
2019-06-08T05:38:55.380Z,99.99
2019-06-08T05:39:55.350Z,99.99
2019-06-08T05:40:55.328Z,99.99
2019-06-08T05:41:55.339Z,99.99
2019-06-08T05:42:55.374Z,99.99
2019-06-08T05:43:55.330Z,99.99
2019-06-08T05:44:55.357Z,99.99
2019-06-08T05:45:55.361Z,99.99
2019-06-08T05:46:55.376Z,99.48
2019-06-08T05:47:55.354Z,99.1
2019-06-08T05:48:55.384Z,99.1
2019-06-08T05:49:55.375Z,98.91
2019-06-08T05:51:06.155Z,98.24
2019-06-08T05:51:55.406Z,98.71
2019-06-08T05:52:55.391Z,98.33
2019-06-08T05:53:55.376Z,98.14
2019-06-08T05:54:55.489Z,98.05
2019-06-08T05:55:55.385Z,97.95
2019-06-08T05:56:55.405Z,98.24
2019-06-08T05:57:55.398Z,98.14
2019-06-08T05:58:55.396Z,98.33
2019-06-08T05:59:55.362Z,98.24
2019-06-08T06:00:57.648Z,98.14
2019-06-08T06:01:55.812Z,98.43
2019-06-08T06:02:55.408Z,98.62
2019-06-08T06:03:55.407Z,99.29
2019-06-08T06:04:56.677Z,99.58
2019-06-08T06:05:55.406Z,99.29
2019-06-08T06:06:55.388Z,98.43
2019-06-08T06:07:55.786Z,98.24
2019-06-08T06:08:56.138Z,98.24
2019-06-08T06:13:24.414Z,97.85
2019-06-08T06:14:24.374Z,98.33
2019-06-08T06:15:24.426Z,98.52
2019-06-08T06:16:24.388Z,99.29
2019-06-08T06:17:24.394Z,98.33
2019-06-08T06:18:24.625Z,98.43
2019-06-08T06:19:24.566Z,97.56
2019-06-08T06:20:24.546Z,96.99
2019-06-08T06:21:24.483Z,96.8
2019-06-08T06:22:24.434Z,96.89
2019-06-08T06:23:24.505Z,96.03
2019-06-08T06:24:24.425Z,96.42
2019-06-08T06:25:24.607Z,96.42
2019-06-08T06:26:24.483Z,97.18
2019-06-08T06:27:24.418Z,96.99
2019-06-08T06:28:34.426Z,96.8
2019-06-08T06:29:24.413Z,96.99
2019-06-08T06:30:24.394Z,96.89
2019-06-08T06:31:24.408Z,96.99
2019-06-08T06:32:24.480Z,96.99
2019-06-08T06:33:24.418Z,97.28
2019-06-08T06:34:24.469Z,97.28
2019-06-08T06:35:24.414Z,96.99
2019-06-08T06:36:24.470Z,96.61
2019-06-08T06:37:24.441Z,95.65
2019-06-08T06:38:24.433Z,95.46
2019-06-08T06:39:24.481Z,95.56
2019-06-08T06:40:24.424Z,96.03
2019-06-08T06:41:24.561Z,96.22
2019-06-08T06:42:27.532Z,96.22
2019-06-08T06:43:25.751Z,97.09
2019-06-08T06:44:24.430Z,97.71
2019-06-08T06:49:42.510Z,98.28
2019-06-08T06:49:56.481Z,95.79
2019-06-08T06:50:56.463Z,95.84
2019-06-08T06:51:56.442Z,97.18
2019-06-08T06:52:56.451Z,95.84
2019-06-08T06:53:56.440Z,96.03
2019-06-08T06:54:56.524Z,95.36
2019-06-08T06:55:56.495Z,95.36
2019-06-08T06:56:56.760Z,95.36
2019-06-08T06:57:56.469Z,95.56
2019-06-08T06:58:56.486Z,95.94
2019-06-08T06:59:56.966Z,95.65
2019-06-08T07:00:56.517Z,95.17
2019-06-08T07:02:00.131Z,95.94
2019-06-08T07:02:56.597Z,95.94
2019-06-08T07:03:57.051Z,94.98
2019-06-08T07:04:57.008Z,95.12
2019-06-08T07:05:56.959Z,95.36
2019-06-08T07:06:57.120Z,95.46
2019-06-08T07:07:57.135Z,95.31
2019-06-08T07:08:57.265Z,96.7
2019-06-08T07:09:57.628Z,96.22
2019-06-08T07:10:57.833Z,95.36
2019-06-08T07:11:59.293Z,96.03
2019-06-08T07:12:57.455Z,96.03
2019-06-08T07:13:57.774Z,95.84
2019-06-08T07:14:58.095Z,95.65
2019-06-08T07:16:14.528Z,95.75
2019-06-08T07:16:56.773Z,95.84
2019-06-08T07:17:58.514Z,95.26
2019-06-08T07:18:58.619Z,94.98
2019-06-08T07:19:57.339Z,94.59
2019-06-08T07:20:57.042Z,94.4
2019-06-08T07:21:58.519Z,94.79
2019-06-08T07:22:57.070Z,94.5
2019-06-08T07:23:58.831Z,94.69
2019-06-08T07:24:58.321Z,94.02
2019-06-08T07:25:57.176Z,94.4
2019-06-08T07:26:57.224Z,93.83
2019-06-08T07:27:59.283Z,94.12
2019-06-08T07:28:58.924Z,93.93
2019-06-08T07:29:57.471Z,93.93
2019-06-08T07:30:57.537Z,93.35
2019-06-08T07:31:59.322Z,92.97
2019-06-08T07:32:57.672Z,93.26
2019-06-08T07:33:59.685Z,93.01
2019-06-08T07:34:57.863Z,91.91
2019-06-08T07:35:57.931Z,92.1
2019-06-08T07:36:59.448Z,91.91
2019-06-08T07:37:56.532Z,92.34
2019-06-08T07:38:56.541Z,91.53
2019-06-08T07:39:56.536Z,91.43
2019-06-08T07:41:01.441Z,91.05
2019-06-08T07:41:56.949Z,91.38
2019-06-08T07:43:00.271Z,91.34
2019-06-08T07:43:58.441Z,91.63
2019-06-08T07:45:00.192Z,91.43
2019-06-08T07:45:56.832Z,90.33
2019-06-08T07:46:56.532Z,90.47
2019-06-08T07:47:56.665Z,90.42
2019-06-08T07:48:58.516Z,90.57
2019-06-08T07:49:58.275Z,89.71
2019-06-08T07:50:58.103Z,89.75
2019-06-08T07:52:10.874Z,89.13
2019-06-08T07:52:57.267Z,90
2019-06-08T07:53:56.598Z,90.09
2019-06-08T07:54:58.500Z,89.51
2019-06-08T07:55:56.529Z,89.61
2019-06-08T07:56:57.580Z,89.61
2019-06-08T07:57:56.706Z,89.71
2019-06-08T07:58:58.991Z,90.19
2019-06-08T07:59:57.256Z,89.18
2019-06-08T08:01:06.542Z,88.94
2019-06-08T08:01:56.640Z,87.41
2019-06-08T08:02:58.217Z,86.93
2019-06-08T08:03:56.840Z,86.97
2019-06-08T08:04:58.780Z,86.88
2019-06-08T08:05:58.588Z,86.97
2019-06-08T08:06:58.383Z,88.12
2019-06-08T08:07:58.614Z,88.41
2019-06-08T08:08:58.782Z,87.26
2019-06-08T08:09:59.693Z,86.78
2019-06-08T08:10:57.247Z,86.11
2019-06-08T08:11:59.566Z,85.72
2019-06-08T08:12:57.362Z,85.82
2019-06-08T08:13:57.865Z,85.92
2019-06-08T08:14:58.434Z,85.34
2019-06-08T08:16:00.669Z,85.34
2019-06-08T08:16:57.652Z,85.34
2019-06-08T08:17:58.046Z,85.15
2019-06-08T08:18:57.580Z,85.15
2019-06-08T08:19:57.776Z,84.09
2019-06-08T08:21:04.352Z,83.81
2019-06-08T08:22:00.897Z,83.81
2019-06-08T08:23:05.493Z,84.58
2019-06-08T08:24:01.100Z,85.15
2019-06-08T08:25:04.280Z,82.75
2019-06-08T08:26:00.083Z,82.65
2019-06-08T08:27:01.920Z,82.65
2019-06-08T08:28:00.651Z,81.79
2019-06-08T08:29:01.253Z,81.31
2019-06-08T08:29:59.742Z,80.93
2019-06-08T08:31:01.638Z,80.07
2019-06-08T08:31:59.867Z,80.64
2019-06-08T08:33:01.415Z,80.78
2019-06-08T08:33:59.586Z,81.07
2019-06-08T08:34:59.156Z,80.97
2019-06-08T08:35:59.748Z,81.93
2019-06-08T08:36:58.862Z,81.74
2019-06-08T08:38:04.001Z,81.07
2019-06-08T08:38:59.023Z,80.2
2019-06-08T08:39:59.557Z,79.24
2019-06-08T08:41:04.575Z,79.44
2019-06-08T08:42:04.477Z,79.44
2019-06-08T08:42:58.614Z,79.24
2019-06-08T08:43:58.911Z,79.38
2019-06-08T08:44:59.276Z,78.8
2019-06-08T08:45:58.666Z,79.19
2019-06-08T08:47:00.535Z,78.42
2019-06-08T08:48:24.181Z,78.96
2019-06-08T08:49:05.041Z,78.86
2019-06-08T08:49:58.690Z,79.24
2019-06-08T08:50:59.320Z,78.8
2019-06-08T08:51:58.961Z,79.44
2019-06-08T08:52:58.910Z,78.38
2019-06-08T08:54:05.275Z,77.71
2019-06-08T08:54:58.911Z,77.36
2019-06-08T08:55:59.315Z,77.4
2019-06-08T08:57:03.333Z,76.44
2019-06-08T08:57:59.359Z,75.71
2019-06-08T08:58:59.194Z,75.42
2019-06-08T09:00:03.092Z,76.04
2019-06-08T09:01:01.312Z,74.88
2019-06-08T09:01:59.770Z,74.08
2019-06-08T09:03:29.269Z,73.21
2019-06-08T09:04:02.987Z,72.92
2019-06-08T09:05:00.261Z,73.11
2019-06-08T09:06:02.401Z,72.96
2019-06-08T09:07:05.075Z,72.92
2019-06-08T09:08:01.999Z,72.83
2019-06-08T09:09:00.495Z,72
2019-06-08T09:10:01.481Z,70.9
2019-06-08T09:11:00.650Z,70.56
2019-06-08T09:12:00.792Z,69.95
2019-06-08T09:13:04.163Z,69.27
2019-06-08T09:14:04.343Z,69.12
2019-06-08T09:15:01.281Z,68.7
2019-06-08T09:16:00.682Z,67.77
2019-06-08T09:17:01.417Z,67.8
2019-06-08T09:18:01.851Z,67.51
2019-06-08T09:19:02.103Z,67.32
2019-06-08T09:20:03.600Z,67.51
2019-06-08T09:21:00.228Z,67.61
2019-06-08T09:21:59.045Z,66.58
2019-06-08T09:23:15.890Z,66.71
2019-06-08T09:24:02.537Z,66.62
2019-06-08T09:25:02.462Z,66.36
2019-06-08T09:26:08.747Z,66.42
2019-06-08T09:27:00.684Z,65.85
2019-06-08T09:28:01.086Z,66.58
2019-06-08T09:29:01.006Z,65.85
2019-06-08T09:30:00.596Z,65.2
2019-06-08T09:30:59.085Z,64.63
2019-06-08T09:31:58.876Z,64.92
2019-06-08T09:33:00.300Z,64.18
2019-06-08T09:34:11.693Z,63.79
2019-06-08T09:35:01.242Z,63.7
2019-06-08T09:35:59.598Z,63.92
2019-06-08T09:37:01.269Z,64.18
2019-06-08T09:38:00.875Z,64.21
2019-06-08T09:39:03.541Z,63.63
2019-06-08T09:39:58.869Z,63.02
2019-06-08T09:41:00.878Z,63.54
2019-06-08T09:42:01.773Z,62.31
2019-06-08T09:43:09.087Z,60.77
2019-06-08T09:44:01.978Z,59.9
2019-06-08T09:45:01.895Z,59.8
2019-06-08T09:46:00.150Z,59.61
2019-06-08T09:47:05.501Z,59.9
2019-06-08T09:48:01.584Z,61.44
2019-06-08T09:49:06.230Z,61.38
2019-06-08T09:50:01.473Z,61.28
2019-06-08T09:51:00.317Z,61.35
2019-06-08T09:52:01.750Z,61.19
2019-06-08T09:53:24.839Z,61.77
2019-06-08T09:54:01.097Z,62.41
2019-06-08T09:55:00.985Z,61.32
2019-06-08T09:56:02.745Z,61.68
2019-06-08T09:57:01.174Z,61.13
2019-06-08T09:58:01.768Z,60.68
2019-06-08T09:59:02.592Z,61
2019-06-08T10:00:00.988Z,60.35
2019-06-08T10:01:00.979Z,60.86
2019-06-08T10:02:05.615Z,61.25
2019-06-08T10:03:01.057Z,61.09
2019-06-08T10:04:00.517Z,60.8
2019-06-08T10:05:00.381Z,61.13
2019-06-08T10:05:59.321Z,61.58
2019-06-08T10:07:00.136Z,61.71
2019-06-08T10:08:00.430Z,61.35
2019-06-08T10:08:58.416Z,61.09
2019-06-08T10:10:00.023Z,61.25
2019-06-08T10:10:59.408Z,65.59
2019-06-08T10:11:59.548Z,63.57
2019-06-08T10:13:01.044Z,64.02
2019-06-08T10:13:59.946Z,63.12
2019-06-08T10:14:58.660Z,62.25
2019-06-08T10:16:01.686Z,63.53
2019-06-08T10:16:59.079Z,64.56
2019-06-08T10:17:58.821Z,62.95
2019-06-08T10:19:01.789Z,63.28
2019-06-08T10:20:00.285Z,64.82
2019-06-08T10:20:59.390Z,67.23
2019-06-08T10:21:58.764Z,66.11
2019-06-08T10:23:00.965Z,64.43
2019-06-08T10:23:59.702Z,63.5
2019-06-08T10:25:02.747Z,61.96
2019-06-08T10:25:59.531Z,63.02
2019-06-08T10:26:59.267Z,61.99
2019-06-08T10:28:00.367Z,61.47
2019-06-08T10:29:09.736Z,61.96
2019-06-08T10:29:59.948Z,62.51
2019-06-08T10:31:00.938Z,62.54
2019-06-08T10:31:57.808Z,61.22
2019-06-08T10:33:03.453Z,62.12
2019-06-08T10:34:02.099Z,63.47
2019-06-08T10:35:01.967Z,62.73
2019-06-08T10:36:00.467Z,62.47
2019-06-08T10:37:03.282Z,63.15
2019-06-08T10:38:02.482Z,63.21
2019-06-08T10:39:02.738Z,63.57
2019-06-08T10:40:02.364Z,63.09
2019-06-08T10:41:06.163Z,63.06
2019-06-08T10:41:59.805Z,63.7
2019-06-08T10:42:59.501Z,63.5
2019-06-08T10:43:57.123Z,62.57
2019-06-08T10:44:59.804Z,62.4
2019-06-08T10:45:59.699Z,62.18
2019-06-08T10:47:00.314Z,61.15
2019-06-08T10:47:59.090Z,61.15
2019-06-08T10:48:57.381Z,62.05
2019-06-08T10:49:59.425Z,61.77
2019-06-08T10:50:58.470Z,61.77
2019-06-08T10:52:00.331Z,62.02
2019-06-08T10:52:59.332Z,60.86
2019-06-08T10:53:57.931Z,61.41
2019-06-08T10:54:59.715Z,62.28
2019-06-08T10:55:58.161Z,62.51
2019-06-08T10:56:59.764Z,62.82
2019-06-08T10:57:58.082Z,62.47
2019-06-08T10:59:05.377Z,63.12
2019-06-08T10:59:57.861Z,62.18
2019-06-08T11:00:59.670Z,61.02
2019-06-08T11:02:00.830Z,61.64
2019-06-08T11:03:00.316Z,61.28
2019-06-08T11:03:58.371Z,62.15
2019-06-08T11:04:58.704Z,61.41
2019-06-08T11:05:59.090Z,60.41
2019-06-08T11:06:59.172Z,61.22
2019-06-08T11:07:59.224Z,60.09
2019-06-08T11:08:58.496Z,59.19
2019-06-08T11:09:58.598Z,59.64
2019-06-08T11:10:57.827Z,59
2019-06-08T11:11:58.291Z,58.54
2019-06-08T11:12:58.145Z,58.35
2019-06-08T11:13:58.289Z,58.57
2019-06-08T11:14:58.296Z,59
2019-06-08T11:15:58.568Z,59.25
2019-06-08T11:16:56.950Z,60.13
2019-06-08T11:18:00.318Z,60.25
2019-06-08T11:18:58.980Z,60.03
2019-06-08T11:19:59.340Z,59.58
2019-06-08T11:20:58.397Z,59.48
2019-06-08T11:21:57.961Z,59.96
2019-06-08T11:22:59.889Z,62.18
2019-06-08T11:24:23.983Z,59.86
2019-06-08T11:24:58.766Z,59.35
2019-06-08T11:25:59.365Z,59
2019-06-08T11:26:57.727Z,58.93
2019-06-08T11:27:58.585Z,57.84
2019-06-08T11:29:09.529Z,58.25
2019-06-08T11:29:57.534Z,58.7
2019-06-08T11:30:57.224Z,58.35
2019-06-08T11:31:58.585Z,58.15
2019-06-08T11:32:57.664Z,58.25
2019-06-08T11:33:58.836Z,59.15
2019-06-08T11:34:56.965Z,58.18
2019-06-08T11:35:58.116Z,58.76
2019-06-08T11:40:31.137Z,57.41
2019-06-08T11:41:31.132Z,57.19
2019-06-08T11:42:31.391Z,57.57
2019-06-08T11:43:31.481Z,57.7
2019-06-08T11:44:31.135Z,57.79
2019-06-08T11:45:31.124Z,58.18
2019-06-08T11:46:31.174Z,57.79
2019-06-08T11:47:35.299Z,57.7
2019-06-08T11:48:31.272Z,57.44
2019-06-08T11:49:31.138Z,57.15
2019-06-08T11:50:31.165Z,57.38
2019-06-08T11:51:32.434Z,56.83
2019-06-08T11:52:31.293Z,56.73
2019-06-08T11:53:31.538Z,56.93
2019-06-08T11:54:40.964Z,56.57
2019-06-08T11:55:31.149Z,56.37
2019-06-08T11:56:31.217Z,57.41
2019-06-08T11:57:31.168Z,56.28
2019-06-08T11:58:33.466Z,57.03
2019-06-08T11:59:31.198Z,57.63
2019-06-08T12:04:01.559Z,56.86
2019-06-08T12:05:01.733Z,56.71
2019-06-08T12:09:32.013Z,58.25
2019-06-08T12:10:31.983Z,58.06
2019-06-08T12:11:31.990Z,57.6
2019-06-08T12:12:31.980Z,57.89
2019-06-08T12:13:31.984Z,58.09
2019-06-08T12:14:33.644Z,57.79
2019-06-08T12:15:32.057Z,56.76
2019-06-08T12:16:32.008Z,56.57
2019-06-08T12:17:35.982Z,57.54
2019-06-08T12:18:31.996Z,56.3
2019-06-08T12:19:34.274Z,56.28
2019-06-08T12:20:32.018Z,56.88
2019-06-08T12:21:32.351Z,56.02
2019-06-08T12:22:32.004Z,55.82
2019-06-08T12:23:32.013Z,56.34
2019-06-08T12:24:43.997Z,56.5
2019-06-08T12:25:32.005Z,55.94
2019-06-08T12:26:32.009Z,55.11
2019-06-08T12:27:40.066Z,55.15
2019-06-08T12:28:32.186Z,55.63
2019-06-08T12:29:32.156Z,56.88
2019-06-08T12:30:32.404Z,57.5
2019-06-08T12:31:32.046Z,56.62
2019-06-08T12:32:32.024Z,56.43
2019-06-08T12:33:33.466Z,55.66
2019-06-08T12:34:32.077Z,55.63
2019-06-08T12:35:32.002Z,56.6
2019-06-08T12:36:33.464Z,56.86
2019-06-08T12:37:32.024Z,57.46
2019-06-08T12:38:38.006Z,57.56
2019-06-08T12:39:32.048Z,56.72
2019-06-08T12:40:32.038Z,56.02
2019-06-08T12:41:34.137Z,56.6
2019-06-08T12:42:32.363Z,55.85
2019-06-08T12:43:32.043Z,55.1
2019-06-08T12:44:32.053Z,56.52
2019-06-08T12:45:32.075Z,55.1
2019-06-08T12:46:32.084Z,54.27
2019-06-08T12:47:32.595Z,53.5
2019-06-08T12:48:32.051Z,53.64
2019-06-08T12:49:32.076Z,54.44
2019-06-08T12:50:32.044Z,53.89
2019-06-08T12:51:32.072Z,54.05
2019-06-08T12:52:32.464Z,53.86
2019-06-08T12:53:32.081Z,53.79
2019-06-08T12:54:32.065Z,54.11
2019-06-08T12:55:32.140Z,55.92
2019-06-08T12:56:32.061Z,54.39
2019-06-08T12:57:32.114Z,53.81
2019-06-08T12:58:32.102Z,53.43
2019-06-08T12:59:32.105Z,53.04
2019-06-08T13:00:32.095Z,53.11
2019-06-08T13:01:32.176Z,53.5
2019-06-08T13:02:32.089Z,53.89
2019-06-08T13:03:32.519Z,54.35
2019-06-08T13:04:32.101Z,53.59
2019-06-08T13:05:32.111Z,54.44
2019-06-08T13:06:32.073Z,55.11
2019-06-08T13:07:32.136Z,54.21
2019-06-08T13:08:32.136Z,54.17
2019-06-08T13:09:32.678Z,55.27
2019-06-08T13:10:32.091Z,53.75
2019-06-08T13:11:32.078Z,54.13
2019-06-08T13:12:32.090Z,53.17
2019-06-08T13:13:32.193Z,53.33
2019-06-08T13:14:32.153Z,53.99
2019-06-08T13:15:33.601Z,54.33
2019-06-08T13:16:32.089Z,54.43
2019-06-08T13:17:32.750Z,54.21
2019-06-08T13:18:32.165Z,54.33
2019-06-08T13:19:32.117Z,54.03
2019-06-08T13:20:32.136Z,53.17
2019-06-08T13:21:38.408Z,53.17
2019-06-08T13:22:34.115Z,52.66
2019-06-08T13:23:32.092Z,52.24
2019-06-08T13:24:32.125Z,53.89
2019-06-08T13:25:43.887Z,54.95
2019-06-08T13:26:33.803Z,54.91
2019-06-08T13:27:32.215Z,53.53